sensor_id;sensor_type;location;lat;lon;timestamp;P1;durP1;ratioP1;P2;durP2;ratioP2
12024;SDS011;6073;53.230;10.444;2023-03-21T00:01:12;25.30;;;19.38;;
12024;SDS011;6073;53.230;10.444;2023-03-21T00:03:39;26.75;;;19.67;;
12024;SDS011;6073;53.230;10.444;2023-03-21T00:06:07;28.58;;;19.95;;
12024;SDS011;6073;53.230;10.444;2023-03-21T00:08:35;27.23;;;19.58;;
12024;SDS011;6073;53.230;10.444;2023-03-21T00:11:02;27.38;;;19.88;;
12024;SDS011;6073;53.230;10.444;2023-03-21T00:13:30;28.10;;;20.30;;
12024;SDS011;6073;53.230;10.444;2023-03-21T00:16:06;28.42;;;20.80;;
12024;SDS011;6073;53.230;10.444;2023-03-21T00:18:33;31.63;;;22.35;;
12024;SDS011;6073;53.230;10.444;2023-03-21T00:21:06;29.88;;;21.00;;
12024;SDS011;6073;53.230;10.444;2023-03-21T00:23:32;26.83;;;19.60;;
12024;SDS011;6073;53.230;10.444;2023-03-21T00:25:58;28.52;;;20.27;;
12024;SDS011;6073;53.230;10.444;2023-03-21T00:28:25;30.83;;;21.90;;
12024;SDS011;6073;53.230;10.444;2023-03-21T00:30:55;29.42;;;20.45;;
12024;SDS011;6073;53.230;10.444;2023-03-21T00:33:24;27.83;;;19.67;;
12024;SDS011;6073;53.230;10.444;2023-03-21T00:35:50;30.73;;;21.35;;
12024;SDS011;6073;53.230;10.444;2023-03-21T00:38:17;28.95;;;21.40;;
12024;SDS011;6073;53.230;10.444;2023-03-21T00:40:47;30.52;;;20.00;;
12024;SDS011;6073;53.230;10.444;2023-03-21T00:43:12;28.33;;;21.27;;
12024;SDS011;6073;53.230;10.444;2023-03-21T00:45:41;26.63;;;20.05;;
12024;SDS011;6073;53.230;10.444;2023-03-21T00:48:07;28.17;;;20.33;;
12024;SDS011;6073;53.230;10.444;2023-03-21T00:50:33;26.63;;;19.35;;
12024;SDS011;6073;53.230;10.444;2023-03-21T00:52:59;25.95;;;20.45;;
12024;SDS011;6073;53.230;10.444;2023-03-21T00:55:25;27.70;;;21.13;;
12024;SDS011;6073;53.230;10.444;2023-03-21T00:57:50;29.70;;;20.52;;
12024;SDS011;6073;53.230;10.444;2023-03-21T01:00:16;27.65;;;20.33;;
12024;SDS011;6073;53.230;10.444;2023-03-21T01:02:43;27.50;;;19.63;;
12024;SDS011;6073;53.230;10.444;2023-03-21T01:05:24;28.50;;;21.40;;
12024;SDS011;6073;53.230;10.444;2023-03-21T01:08:13;27.42;;;20.25;;
12024;SDS011;6073;53.230;10.444;2023-03-21T01:10:43;28.95;;;21.25;;
12024;SDS011;6073;53.230;10.444;2023-03-21T01:13:11;28.48;;;21.50;;
12024;SDS011;6073;53.230;10.444;2023-03-21T01:15:42;29.50;;;20.90;;
12024;SDS011;6073;53.230;10.444;2023-03-21T01:18:10;29.13;;;20.92;;
12024;SDS011;6073;53.230;10.444;2023-03-21T01:20:39;30.05;;;20.85;;
12024;SDS011;6073;53.230;10.444;2023-03-21T01:23:05;30.17;;;20.30;;
12024;SDS011;6073;53.230;10.444;2023-03-21T01:25:31;29.08;;;20.67;;
12024;SDS011;6073;53.230;10.444;2023-03-21T01:27:57;27.02;;;20.40;;
12024;SDS011;6073;53.230;10.444;2023-03-21T01:30:23;28.23;;;21.20;;
12024;SDS011;6073;53.230;10.444;2023-03-21T01:32:49;27.02;;;20.42;;
12024;SDS011;6073;53.230;10.444;2023-03-21T01:35:15;28.55;;;20.23;;
12024;SDS011;6073;53.230;10.444;2023-03-21T01:37:40;29.33;;;20.67;;
12024;SDS011;6073;53.230;10.444;2023-03-21T01:40:07;27.08;;;20.75;;
12024;SDS011;6073;53.230;10.444;2023-03-21T01:42:39;26.70;;;19.48;;
12024;SDS011;6073;53.230;10.444;2023-03-21T01:45:06;28.15;;;20.50;;
12024;SDS011;6073;53.230;10.444;2023-03-21T01:47:52;26.20;;;19.73;;
12024;SDS011;6073;53.230;10.444;2023-03-21T01:50:17;24.42;;;19.13;;
12024;SDS011;6073;53.230;10.444;2023-03-21T01:52:47;26.17;;;19.90;;
12024;SDS011;6073;53.230;10.444;2023-03-21T01:55:14;25.73;;;19.23;;
12024;SDS011;6073;53.230;10.444;2023-03-21T01:57:42;26.00;;;19.95;;
12024;SDS011;6073;53.230;10.444;2023-03-21T02:00:13;27.45;;;19.77;;
12024;SDS011;6073;53.230;10.444;2023-03-21T02:02:44;23.67;;;17.67;;
12024;SDS011;6073;53.230;10.444;2023-03-21T02:05:43;24.30;;;18.48;;
12024;SDS011;6073;53.230;10.444;2023-03-21T02:08:09;24.23;;;18.85;;
12024;SDS011;6073;53.230;10.444;2023-03-21T02:10:37;24.92;;;19.08;;
12024;SDS011;6073;53.230;10.444;2023-03-21T02:13:04;25.95;;;19.13;;
12024;SDS011;6073;53.230;10.444;2023-03-21T02:15:36;25.60;;;18.80;;
12024;SDS011;6073;53.230;10.444;2023-03-21T02:18:28;25.27;;;18.00;;
12024;SDS011;6073;53.230;10.444;2023-03-21T02:29:14;25.60;;;17.98;;
12024;SDS011;6073;53.230;10.444;2023-03-21T02:31:48;24.63;;;18.23;;
12024;SDS011;6073;53.230;10.444;2023-03-21T02:34:44;24.95;;;18.63;;
12024;SDS011;6073;53.230;10.444;2023-03-21T02:37:41;25.42;;;18.38;;
12024;SDS011;6073;53.230;10.444;2023-03-21T02:45:44;26.55;;;19.60;;
12024;SDS011;6073;53.230;10.444;2023-03-21T02:48:18;25.10;;;19.17;;
12024;SDS011;6073;53.230;10.444;2023-03-21T02:50:50;26.73;;;20.08;;
12024;SDS011;6073;53.230;10.444;2023-03-21T02:53:22;26.42;;;19.58;;
12024;SDS011;6073;53.230;10.444;2023-03-21T02:55:50;24.60;;;18.80;;
12024;SDS011;6073;53.230;10.444;2023-03-21T02:58:19;25.33;;;19.40;;
12024;SDS011;6073;53.230;10.444;2023-03-21T03:00:47;25.13;;;18.80;;
12024;SDS011;6073;53.230;10.444;2023-03-21T03:03:14;25.00;;;19.38;;
12024;SDS011;6073;53.230;10.444;2023-03-21T03:05:42;27.67;;;20.15;;
12024;SDS011;6073;53.230;10.444;2023-03-21T03:08:16;27.23;;;19.40;;
12024;SDS011;6073;53.230;10.444;2023-03-21T03:16:37;27.75;;;19.75;;
12024;SDS011;6073;53.230;10.444;2023-03-21T03:19:19;27.52;;;20.73;;
12024;SDS011;6073;53.230;10.444;2023-03-21T03:21:55;25.90;;;18.58;;
12024;SDS011;6073;53.230;10.444;2023-03-21T03:24:23;26.65;;;19.88;;
12024;SDS011;6073;53.230;10.444;2023-03-21T03:26:54;23.15;;;18.02;;
12024;SDS011;6073;53.230;10.444;2023-03-21T03:29:24;25.92;;;19.08;;
12024;SDS011;6073;53.230;10.444;2023-03-21T03:32:34;26.30;;;19.88;;
12024;SDS011;6073;53.230;10.444;2023-03-21T03:34:47;28.92;;;20.52;;
12024;SDS011;6073;53.230;10.444;2023-03-21T03:37:21;29.80;;;20.40;;
12024;SDS011;6073;53.230;10.444;2023-03-21T03:39:57;27.75;;;20.23;;
12024;SDS011;6073;53.230;10.444;2023-03-21T03:42:37;27.35;;;20.13;;
12024;SDS011;6073;53.230;10.444;2023-03-21T03:45:07;29.13;;;21.83;;
12024;SDS011;6073;53.230;10.444;2023-03-21T03:50:13;30.00;;;21.88;;
12024;SDS011;6073;53.230;10.444;2023-03-21T03:52:42;25.90;;;19.10;;
12024;SDS011;6073;53.230;10.444;2023-03-21T03:55:13;26.90;;;20.40;;
12024;SDS011;6073;53.230;10.444;2023-03-21T03:57:41;29.05;;;21.58;;
12024;SDS011;6073;53.230;10.444;2023-03-21T04:00:09;30.98;;;21.63;;
12024;SDS011;6073;53.230;10.444;2023-03-21T04:02:36;26.67;;;20.25;;
12024;SDS011;6073;53.230;10.444;2023-03-21T04:05:02;26.95;;;20.73;;
12024;SDS011;6073;53.230;10.444;2023-03-21T04:07:29;28.23;;;20.75;;
12024;SDS011;6073;53.230;10.444;2023-03-21T04:09:55;28.55;;;20.88;;
12024;SDS011;6073;53.230;10.444;2023-03-21T04:12:21;29.25;;;20.77;;
12024;SDS011;6073;53.230;10.444;2023-03-21T04:14:48;32.35;;;23.25;;
12024;SDS011;6073;53.230;10.444;2023-03-21T04:17:14;32.95;;;22.52;;
12024;SDS011;6073;53.230;10.444;2023-03-21T04:19:40;29.80;;;21.02;;
12024;SDS011;6073;53.230;10.444;2023-03-21T04:22:05;33.75;;;23.55;;
12024;SDS011;6073;53.230;10.444;2023-03-21T04:24:32;30.00;;;21.77;;
12024;SDS011;6073;53.230;10.444;2023-03-21T04:26:57;32.15;;;21.52;;
12024;SDS011;6073;53.230;10.444;2023-03-21T04:29:24;30.60;;;22.67;;
12024;SDS011;6073;53.230;10.444;2023-03-21T04:31:50;34.50;;;23.33;;
12024;SDS011;6073;53.230;10.444;2023-03-21T04:34:15;33.90;;;23.33;;
12024;SDS011;6073;53.230;10.444;2023-03-21T04:36:41;33.83;;;23.02;;
12024;SDS011;6073;53.230;10.444;2023-03-21T04:39:08;33.58;;;24.00;;
12024;SDS011;6073;53.230;10.444;2023-03-21T04:41:46;39.97;;;26.02;;
12024;SDS011;6073;53.230;10.444;2023-03-21T04:44:13;33.75;;;23.20;;
12024;SDS011;6073;53.230;10.444;2023-03-21T04:46:41;36.13;;;24.27;;
12024;SDS011;6073;53.230;10.444;2023-03-21T04:49:06;38.42;;;26.05;;
12024;SDS011;6073;53.230;10.444;2023-03-21T04:51:32;36.50;;;25.40;;
12024;SDS011;6073;53.230;10.444;2023-03-21T04:53:58;33.88;;;23.50;;
12024;SDS011;6073;53.230;10.444;2023-03-21T04:56:25;35.65;;;25.20;;
12024;SDS011;6073;53.230;10.444;2023-03-21T04:58:56;34.97;;;23.50;;
12024;SDS011;6073;53.230;10.444;2023-03-21T05:01:26;37.95;;;24.90;;
12024;SDS011;6073;53.230;10.444;2023-03-21T05:03:55;33.92;;;23.80;;
12024;SDS011;6073;53.230;10.444;2023-03-21T05:06:22;41.45;;;27.23;;
12024;SDS011;6073;53.230;10.444;2023-03-21T05:08:48;42.58;;;27.58;;
12024;SDS011;6073;53.230;10.444;2023-03-21T05:11:13;37.45;;;25.95;;
12024;SDS011;6073;53.230;10.444;2023-03-21T05:13:39;44.00;;;27.73;;
12024;SDS011;6073;53.230;10.444;2023-03-21T05:16:05;36.17;;;26.30;;
12024;SDS011;6073;53.230;10.444;2023-03-21T05:18:31;40.25;;;26.50;;
12024;SDS011;6073;53.230;10.444;2023-03-21T05:21:02;32.88;;;23.55;;
12024;SDS011;6073;53.230;10.444;2023-03-21T05:23:31;43.83;;;26.30;;
12024;SDS011;6073;53.230;10.444;2023-03-21T05:26:03;43.80;;;27.65;;
12024;SDS011;6073;53.230;10.444;2023-03-21T05:28:32;42.50;;;27.23;;
12024;SDS011;6073;53.230;10.444;2023-03-21T05:31:01;43.47;;;27.15;;
12024;SDS011;6073;53.230;10.444;2023-03-21T05:33:30;38.35;;;27.23;;
12024;SDS011;6073;53.230;10.444;2023-03-21T05:35:56;38.67;;;26.08;;
12024;SDS011;6073;53.230;10.444;2023-03-21T05:38:22;40.75;;;28.25;;
12024;SDS011;6073;53.230;10.444;2023-03-21T05:40:48;41.05;;;26.90;;
12024;SDS011;6073;53.230;10.444;2023-03-21T05:43:14;44.08;;;29.88;;
12024;SDS011;6073;53.230;10.444;2023-03-21T05:45:40;41.33;;;28.25;;
12024;SDS011;6073;53.230;10.444;2023-03-21T05:48:06;40.38;;;28.48;;
12024;SDS011;6073;53.230;10.444;2023-03-21T05:50:31;41.17;;;28.05;;
12024;SDS011;6073;53.230;10.444;2023-03-21T05:52:57;39.45;;;27.98;;
12024;SDS011;6073;53.230;10.444;2023-03-21T05:55:23;36.85;;;26.23;;
12024;SDS011;6073;53.230;10.444;2023-03-21T05:57:49;46.05;;;30.02;;
12024;SDS011;6073;53.230;10.444;2023-03-21T06:00:15;39.80;;;27.00;;
12024;SDS011;6073;53.230;10.444;2023-03-21T06:02:42;42.25;;;29.50;;
12024;SDS011;6073;53.230;10.444;2023-03-21T06:05:08;45.28;;;30.73;;
12024;SDS011;6073;53.230;10.444;2023-03-21T06:07:34;44.67;;;29.00;;
12024;SDS011;6073;53.230;10.444;2023-03-21T06:10:01;47.70;;;29.85;;
12024;SDS011;6073;53.230;10.444;2023-03-21T06:12:27;43.17;;;29.27;;
12024;SDS011;6073;53.230;10.444;2023-03-21T06:14:53;46.85;;;31.27;;
12024;SDS011;6073;53.230;10.444;2023-03-21T06:17:18;41.80;;;27.95;;
12024;SDS011;6073;53.230;10.444;2023-03-21T06:19:44;42.45;;;29.90;;
12024;SDS011;6073;53.230;10.444;2023-03-21T06:22:10;41.63;;;28.90;;
12024;SDS011;6073;53.230;10.444;2023-03-21T06:24:35;42.60;;;29.08;;
12024;SDS011;6073;53.230;10.444;2023-03-21T06:27:01;40.58;;;28.90;;
12024;SDS011;6073;53.230;10.444;2023-03-21T06:29:27;39.70;;;29.10;;
12024;SDS011;6073;53.230;10.444;2023-03-21T06:31:52;38.28;;;26.85;;
12024;SDS011;6073;53.230;10.444;2023-03-21T06:34:18;40.78;;;29.65;;
12024;SDS011;6073;53.230;10.444;2023-03-21T06:36:43;38.28;;;28.10;;
12024;SDS011;6073;53.230;10.444;2023-03-21T06:39:10;42.60;;;28.88;;
12024;SDS011;6073;53.230;10.444;2023-03-21T06:41:37;39.17;;;28.52;;
12024;SDS011;6073;53.230;10.444;2023-03-21T06:44:03;41.85;;;28.63;;
12024;SDS011;6073;53.230;10.444;2023-03-21T06:46:29;43.78;;;29.65;;
12024;SDS011;6073;53.230;10.444;2023-03-21T06:48:55;42.65;;;29.67;;
12024;SDS011;6073;53.230;10.444;2023-03-21T06:51:21;42.58;;;29.13;;
12024;SDS011;6073;53.230;10.444;2023-03-21T06:53:46;43.83;;;29.63;;
12024;SDS011;6073;53.230;10.444;2023-03-21T06:56:12;43.58;;;29.30;;
12024;SDS011;6073;53.230;10.444;2023-03-21T06:58:39;39.72;;;27.15;;
12024;SDS011;6073;53.230;10.444;2023-03-21T07:01:05;40.40;;;29.98;;
12024;SDS011;6073;53.230;10.444;2023-03-21T07:03:32;40.22;;;28.92;;
12024;SDS011;6073;53.230;10.444;2023-03-21T07:05:58;42.47;;;28.48;;
12024;SDS011;6073;53.230;10.444;2023-03-21T07:08:27;41.88;;;28.88;;
12024;SDS011;6073;53.230;10.444;2023-03-21T07:10:54;42.60;;;29.67;;
12024;SDS011;6073;53.230;10.444;2023-03-21T07:13:21;45.17;;;29.95;;
12024;SDS011;6073;53.230;10.444;2023-03-21T07:15:47;41.10;;;29.00;;
12024;SDS011;6073;53.230;10.444;2023-03-21T07:18:13;39.80;;;27.45;;
12024;SDS011;6073;53.230;10.444;2023-03-21T07:20:38;40.25;;;27.95;;
12024;SDS011;6073;53.230;10.444;2023-03-21T07:23:04;40.00;;;28.17;;
12024;SDS011;6073;53.230;10.444;2023-03-21T07:25:30;42.00;;;30.02;;
12024;SDS011;6073;53.230;10.444;2023-03-21T07:27:55;38.50;;;27.27;;
12024;SDS011;6073;53.230;10.444;2023-03-21T07:30:21;40.70;;;29.35;;
12024;SDS011;6073;53.230;10.444;2023-03-21T07:32:47;39.40;;;28.35;;
12024;SDS011;6073;53.230;10.444;2023-03-21T07:35:14;41.15;;;27.95;;
12024;SDS011;6073;53.230;10.444;2023-03-21T07:37:41;38.33;;;26.85;;
12024;SDS011;6073;53.230;10.444;2023-03-21T07:40:08;37.90;;;27.40;;
12024;SDS011;6073;53.230;10.444;2023-03-21T07:42:38;40.60;;;28.48;;
12024;SDS011;6073;53.230;10.444;2023-03-21T07:45:05;37.03;;;25.63;;
12024;SDS011;6073;53.230;10.444;2023-03-21T07:47:32;37.88;;;27.17;;
12024;SDS011;6073;53.230;10.444;2023-03-21T07:49:58;38.50;;;27.98;;
12024;SDS011;6073;53.230;10.444;2023-03-21T07:52:24;34.10;;;25.65;;
12024;SDS011;6073;53.230;10.444;2023-03-21T07:54:49;36.67;;;25.85;;
12024;SDS011;6073;53.230;10.444;2023-03-21T07:57:15;35.15;;;27.02;;
12024;SDS011;6073;53.230;10.444;2023-03-21T07:59:41;35.97;;;25.80;;
12024;SDS011;6073;53.230;10.444;2023-03-21T08:02:09;34.83;;;25.27;;
12024;SDS011;6073;53.230;10.444;2023-03-21T08:04:40;35.72;;;25.23;;
12024;SDS011;6073;53.230;10.444;2023-03-21T08:07:06;33.28;;;24.20;;
12024;SDS011;6073;53.230;10.444;2023-03-21T08:09:32;30.63;;;23.70;;
12024;SDS011;6073;53.230;10.444;2023-03-21T08:11:58;33.10;;;24.52;;
12024;SDS011;6073;53.230;10.444;2023-03-21T08:14:24;29.38;;;22.50;;
12024;SDS011;6073;53.230;10.444;2023-03-21T08:16:50;30.95;;;23.17;;
12024;SDS011;6073;53.230;10.444;2023-03-21T08:19:16;32.78;;;23.52;;
12024;SDS011;6073;53.230;10.444;2023-03-21T08:21:45;28.73;;;22.38;;
12024;SDS011;6073;53.230;10.444;2023-03-21T08:24:11;28.92;;;21.88;;
12024;SDS011;6073;53.230;10.444;2023-03-21T08:26:36;28.02;;;22.15;;
12024;SDS011;6073;53.230;10.444;2023-03-21T08:29:02;27.80;;;21.48;;
12024;SDS011;6073;53.230;10.444;2023-03-21T08:31:28;29.27;;;21.45;;
12024;SDS011;6073;53.230;10.444;2023-03-21T08:33:54;28.70;;;22.25;;
12024;SDS011;6073;53.230;10.444;2023-03-21T08:36:21;28.58;;;21.45;;
12024;SDS011;6073;53.230;10.444;2023-03-21T08:38:47;27.50;;;20.23;;
12024;SDS011;6073;53.230;10.444;2023-03-21T08:41:18;27.42;;;19.73;;
12024;SDS011;6073;53.230;10.444;2023-03-21T08:43:46;24.77;;;19.23;;
12024;SDS011;6073;53.230;10.444;2023-03-21T08:46:12;26.50;;;19.70;;
12024;SDS011;6073;53.230;10.444;2023-03-21T08:48:38;23.60;;;18.58;;
12024;SDS011;6073;53.230;10.444;2023-03-21T08:51:06;23.45;;;17.88;;
12024;SDS011;6073;53.230;10.444;2023-03-21T08:53:33;21.58;;;18.40;;
12024;SDS011;6073;53.230;10.444;2023-03-21T08:55:59;24.40;;;18.88;;
12024;SDS011;6073;53.230;10.444;2023-03-21T08:58:27;22.70;;;17.90;;
12024;SDS011;6073;53.230;10.444;2023-03-21T09:00:54;21.23;;;18.13;;
12024;SDS011;6073;53.230;10.444;2023-03-21T09:03:20;20.00;;;16.87;;
12024;SDS011;6073;53.230;10.444;2023-03-21T09:05:48;22.38;;;17.52;;
12024;SDS011;6073;53.230;10.444;2023-03-21T09:08:20;22.13;;;16.63;;
12024;SDS011;6073;53.230;10.444;2023-03-21T09:11:21;19.48;;;16.67;;
12024;SDS011;6073;53.230;10.444;2023-03-21T09:13:49;20.08;;;17.25;;
12024;SDS011;6073;53.230;10.444;2023-03-21T09:16:15;21.35;;;17.58;;
12024;SDS011;6073;53.230;10.444;2023-03-21T09:18:41;20.85;;;16.73;;
12024;SDS011;6073;53.230;10.444;2023-03-21T09:21:26;19.95;;;15.52;;
12024;SDS011;6073;53.230;10.444;2023-03-21T09:23:54;20.98;;;17.25;;
12024;SDS011;6073;53.230;10.444;2023-03-21T09:26:23;23.15;;;17.98;;
12024;SDS011;6073;53.230;10.444;2023-03-21T09:28:50;22.60;;;18.17;;
12024;SDS011;6073;53.230;10.444;2023-03-21T09:31:18;22.75;;;17.80;;
12024;SDS011;6073;53.230;10.444;2023-03-21T09:33:54;22.52;;;17.33;;
12024;SDS011;6073;53.230;10.444;2023-03-21T09:36:28;19.67;;;16.77;;
12024;SDS011;6073;53.230;10.444;2023-03-21T09:45:35;22.67;;;18.10;;
12024;SDS011;6073;53.230;10.444;2023-03-21T09:48:55;26.80;;;19.05;;
12024;SDS011;6073;53.230;10.444;2023-03-21T09:51:35;25.77;;;20.63;;
12024;SDS011;6073;53.230;10.444;2023-03-21T09:54:07;26.75;;;20.25;;
12024;SDS011;6073;53.230;10.444;2023-03-21T09:56:51;27.00;;;19.67;;
12024;SDS011;6073;53.230;10.444;2023-03-21T09:59:35;27.02;;;19.15;;
12024;SDS011;6073;53.230;10.444;2023-03-21T10:03:04;23.23;;;19.48;;
12024;SDS011;6073;53.230;10.444;2023-03-21T10:05:05;28.55;;;18.88;;
12024;SDS011;6073;53.230;10.444;2023-03-21T10:07:41;20.58;;;17.58;;
12024;SDS011;6073;53.230;10.444;2023-03-21T10:10:16;21.48;;;17.48;;
12024;SDS011;6073;53.230;10.444;2023-03-21T10:12:47;24.20;;;18.23;;
12024;SDS011;6073;53.230;10.444;2023-03-21T10:15:17;21.52;;;16.42;;
12024;SDS011;6073;53.230;10.444;2023-03-21T10:17:48;22.55;;;17.17;;
12024;SDS011;6073;53.230;10.444;2023-03-21T10:20:20;19.02;;;15.40;;
12024;SDS011;6073;53.230;10.444;2023-03-21T10:22:49;21.05;;;16.95;;
12024;SDS011;6073;53.230;10.444;2023-03-21T10:25:20;19.35;;;15.48;;
12024;SDS011;6073;53.230;10.444;2023-03-21T10:27:50;20.15;;;15.75;;
12024;SDS011;6073;53.230;10.444;2023-03-21T10:32:59;18.17;;;15.32;;
12024;SDS011;6073;53.230;10.444;2023-03-21T10:35:29;18.75;;;15.95;;
12024;SDS011;6073;53.230;10.444;2023-03-21T10:37:57;22.05;;;15.60;;
12024;SDS011;6073;53.230;10.444;2023-03-21T10:40:25;21.33;;;16.05;;
12024;SDS011;6073;53.230;10.444;2023-03-21T10:42:53;17.83;;;14.80;;
12024;SDS011;6073;53.230;10.444;2023-03-21T10:45:21;18.90;;;14.88;;
12024;SDS011;6073;53.230;10.444;2023-03-21T10:47:48;19.20;;;14.45;;
12024;SDS011;6073;53.230;10.444;2023-03-21T10:50:17;17.90;;;14.07;;
12024;SDS011;6073;53.230;10.444;2023-03-21T10:52:55;18.48;;;14.63;;
12024;SDS011;6073;53.230;10.444;2023-03-21T10:55:28;16.95;;;13.75;;
12024;SDS011;6073;53.230;10.444;2023-03-21T10:58:06;17.77;;;13.95;;
12024;SDS011;6073;53.230;10.444;2023-03-21T11:00:36;17.02;;;13.77;;
12024;SDS011;6073;53.230;10.444;2023-03-21T11:03:05;18.48;;;14.13;;
12024;SDS011;6073;53.230;10.444;2023-03-21T11:05:39;17.63;;;14.60;;
12024;SDS011;6073;53.230;10.444;2023-03-21T11:08:10;16.05;;;12.48;;
12024;SDS011;6073;53.230;10.444;2023-03-21T11:10:50;19.30;;;13.40;;
12024;SDS011;6073;53.230;10.444;2023-03-21T11:13:26;18.25;;;13.25;;
12024;SDS011;6073;53.230;10.444;2023-03-21T11:16:06;18.45;;;14.15;;
12024;SDS011;6073;53.230;10.444;2023-03-21T11:18:43;17.35;;;13.38;;
12024;SDS011;6073;53.230;10.444;2023-03-21T11:21:13;18.73;;;13.75;;
12024;SDS011;6073;53.230;10.444;2023-03-21T11:23:41;20.60;;;13.80;;
12024;SDS011;6073;53.230;10.444;2023-03-21T11:26:14;18.83;;;14.07;;
12024;SDS011;6073;53.230;10.444;2023-03-21T11:28:51;17.20;;;12.98;;
12024;SDS011;6073;53.230;10.444;2023-03-21T11:31:18;15.88;;;11.85;;
12024;SDS011;6073;53.230;10.444;2023-03-21T11:33:50;16.55;;;12.93;;
12024;SDS011;6073;53.230;10.444;2023-03-21T11:38:48;15.05;;;12.73;;
12024;SDS011;6073;53.230;10.444;2023-03-21T11:41:22;18.27;;;12.15;;
12024;SDS011;6073;53.230;10.444;2023-03-21T11:43:56;15.20;;;12.48;;
12024;SDS011;6073;53.230;10.444;2023-03-21T11:46:24;16.23;;;12.65;;
12024;SDS011;6073;53.230;10.444;2023-03-21T11:48:51;15.35;;;12.48;;
12024;SDS011;6073;53.230;10.444;2023-03-21T11:56:42;16.63;;;11.50;;
12024;SDS011;6073;53.230;10.444;2023-03-21T12:04:12;14.02;;;11.68;;
12024;SDS011;6073;53.230;10.444;2023-03-21T12:15:23;12.57;;;9.88;;
12024;SDS011;6073;53.230;10.444;2023-03-21T12:41:38;13.32;;;9.52;;
12024;SDS011;6073;53.230;10.444;2023-03-21T12:44:16;13.20;;;9.85;;
12024;SDS011;6073;53.230;10.444;2023-03-21T12:52:11;13.00;;;9.27;;
12024;SDS011;6073;53.230;10.444;2023-03-21T12:57:39;13.48;;;10.38;;
12024;SDS011;6073;53.230;10.444;2023-03-21T13:03:04;12.55;;;9.93;;
12024;SDS011;6073;53.230;10.444;2023-03-21T13:05:48;12.27;;;9.18;;
12024;SDS011;6073;53.230;10.444;2023-03-21T13:10:59;12.68;;;10.18;;
12024;SDS011;6073;53.230;10.444;2023-03-21T13:13:37;12.55;;;9.95;;
12024;SDS011;6073;53.230;10.444;2023-03-21T13:24:17;11.68;;;9.95;;
12024;SDS011;6073;53.230;10.444;2023-03-21T13:26:49;14.60;;;10.43;;
12024;SDS011;6073;53.230;10.444;2023-03-21T13:29:41;13.48;;;10.65;;
12024;SDS011;6073;53.230;10.444;2023-03-21T13:35:19;14.80;;;9.80;;
12024;SDS011;6073;53.230;10.444;2023-03-21T13:38:09;13.02;;;10.13;;
12024;SDS011;6073;53.230;10.444;2023-03-21T13:40:50;16.05;;;9.63;;
12024;SDS011;6073;53.230;10.444;2023-03-21T13:43:39;13.00;;;10.93;;
12024;SDS011;6073;53.230;10.444;2023-03-21T13:51:55;14.00;;;10.88;;
12024;SDS011;6073;53.230;10.444;2023-03-21T13:54:19;12.70;;;9.90;;
12024;SDS011;6073;53.230;10.444;2023-03-21T14:00:12;15.98;;;10.82;;
12024;SDS011;6073;53.230;10.444;2023-03-21T14:04:51;14.00;;;10.45;;
12024;SDS011;6073;53.230;10.444;2023-03-21T14:07:37;11.75;;;10.10;;
12024;SDS011;6073;53.230;10.444;2023-03-21T14:10:29;12.15;;;9.10;;
12024;SDS011;6073;53.230;10.444;2023-03-21T14:12:58;9.30;;;7.85;;
12024;SDS011;6073;53.230;10.444;2023-03-21T14:15:25;9.75;;;7.90;;
12024;SDS011;6073;53.230;10.444;2023-03-21T14:18:02;13.63;;;8.93;;
12024;SDS011;6073;53.230;10.444;2023-03-21T14:20:32;12.07;;;8.15;;
12024;SDS011;6073;53.230;10.444;2023-03-21T14:23:02;10.40;;;9.23;;
12024;SDS011;6073;53.230;10.444;2023-03-21T14:25:35;12.60;;;8.90;;
12024;SDS011;6073;53.230;10.444;2023-03-21T14:28:03;11.40;;;8.68;;
12024;SDS011;6073;53.230;10.444;2023-03-21T14:30:36;11.40;;;8.77;;
12024;SDS011;6073;53.230;10.444;2023-03-21T14:35:41;11.35;;;8.32;;
12024;SDS011;6073;53.230;10.444;2023-03-21T14:38:16;10.68;;;8.15;;
12024;SDS011;6073;53.230;10.444;2023-03-21T14:40:49;13.63;;;8.82;;
12024;SDS011;6073;53.230;10.444;2023-03-21T14:43:18;12.93;;;9.02;;
12024;SDS011;6073;53.230;10.444;2023-03-21T14:45:46;11.20;;;8.68;;
12024;SDS011;6073;53.230;10.444;2023-03-21T14:48:14;12.32;;;9.13;;
12024;SDS011;6073;53.230;10.444;2023-03-21T14:53:14;9.82;;;8.75;;
12024;SDS011;6073;53.230;10.444;2023-03-21T14:55:50;13.10;;;9.35;;
12024;SDS011;6073;53.230;10.444;2023-03-21T14:58:21;12.82;;;10.65;;
12024;SDS011;6073;53.230;10.444;2023-03-21T15:00:48;12.73;;;9.93;;
12024;SDS011;6073;53.230;10.444;2023-03-21T15:03:15;11.18;;;9.18;;
12024;SDS011;6073;53.230;10.444;2023-03-21T15:05:43;11.90;;;9.80;;
12024;SDS011;6073;53.230;10.444;2023-03-21T15:10:35;13.43;;;10.40;;
12024;SDS011;6073;53.230;10.444;2023-03-21T15:13:12;12.85;;;9.75;;
12024;SDS011;6073;53.230;10.444;2023-03-21T15:15:40;14.20;;;10.82;;
12024;SDS011;6073;53.230;10.444;2023-03-21T15:18:06;14.32;;;11.57;;
12024;SDS011;6073;53.230;10.444;2023-03-21T15:20:34;13.00;;;9.77;;
12024;SDS011;6073;53.230;10.444;2023-03-21T15:23:03;14.70;;;10.07;;
12024;SDS011;6073;53.230;10.444;2023-03-21T15:25:33;14.98;;;10.30;;
12024;SDS011;6073;53.230;10.444;2023-03-21T15:28:00;9.68;;;6.90;;
12024;SDS011;6073;53.230;10.444;2023-03-21T15:30:27;12.30;;;8.75;;
12024;SDS011;6073;53.230;10.444;2023-03-21T15:32:55;10.93;;;9.38;;
12024;SDS011;6073;53.230;10.444;2023-03-21T15:35:30;11.10;;;8.32;;
12024;SDS011;6073;53.230;10.444;2023-03-21T15:38:04;9.55;;;8.02;;
12024;SDS011;6073;53.230;10.444;2023-03-21T15:40:32;12.48;;;8.48;;
12024;SDS011;6073;53.230;10.444;2023-03-21T15:43:15;11.63;;;8.15;;
12024;SDS011;6073;53.230;10.444;2023-03-21T15:45:52;10.38;;;7.95;;
12024;SDS011;6073;53.230;10.444;2023-03-21T15:48:28;11.52;;;8.75;;
12024;SDS011;6073;53.230;10.444;2023-03-21T15:53:33;14.45;;;10.52;;
12024;SDS011;6073;53.230;10.444;2023-03-21T15:56:00;12.18;;;9.63;;
12024;SDS011;6073;53.230;10.444;2023-03-21T15:58:35;11.25;;;8.40;;
12024;SDS011;6073;53.230;10.444;2023-03-21T16:01:07;10.80;;;8.75;;
12024;SDS011;6073;53.230;10.444;2023-03-21T16:03:43;13.07;;;8.13;;
12024;SDS011;6073;53.230;10.444;2023-03-21T16:14:24;10.93;;;7.35;;
12024;SDS011;6073;53.230;10.444;2023-03-21T16:16:54;9.40;;;8.35;;
12024;SDS011;6073;53.230;10.444;2023-03-21T16:19:21;11.63;;;7.97;;
12024;SDS011;6073;53.230;10.444;2023-03-21T16:21:48;12.10;;;7.30;;
12024;SDS011;6073;53.230;10.444;2023-03-21T16:24:14;10.90;;;7.95;;
12024;SDS011;6073;53.230;10.444;2023-03-21T16:26:44;10.05;;;7.53;;
12024;SDS011;6073;53.230;10.444;2023-03-21T16:29:12;8.82;;;7.20;;
12024;SDS011;6073;53.230;10.444;2023-03-21T16:31:39;10.23;;;7.45;;
12024;SDS011;6073;53.230;10.444;2023-03-21T16:34:05;11.68;;;8.35;;
12024;SDS011;6073;53.230;10.444;2023-03-21T16:36:32;11.90;;;7.43;;
12024;SDS011;6073;53.230;10.444;2023-03-21T16:41:42;7.60;;;6.20;;
12024;SDS011;6073;53.230;10.444;2023-03-21T16:44:08;9.48;;;6.70;;
12024;SDS011;6073;53.230;10.444;2023-03-21T16:46:33;11.48;;;6.78;;
12024;SDS011;6073;53.230;10.444;2023-03-21T16:48:59;9.93;;;6.22;;
12024;SDS011;6073;53.230;10.444;2023-03-21T16:51:32;7.50;;;6.38;;
12024;SDS011;6073;53.230;10.444;2023-03-21T16:53:59;9.73;;;6.80;;